Time;durP1;ratioP1;P1;durP2;ratioP2;P2;SDS_P1;SDS_P2;PMS_P1;PMS_P2;Temp;Humidity;BMP_temperature;BMP_pressure;BME280_temperature;BME280_humidity;BME280_pressure;Samples;Min_cycle;Max_cycle;Signal;HPM_P1;HPM_P2
2024/04/23 00:00:01;;;;;;;1.10;1.10;;;;;;;-0.69;96.98;98688.78;6388883;22;20010;-89
2024/04/23 00:02:26;;;;;;;1.10;1.10;;;;;;;-0.61;95.39;98688.56;6382172;22;20014;-89
2024/04/23 00:04:52;;;;;;;1.15;1.15;;;;;;;-0.38;94.36;98694.53;6425983;22;19998;-90
2024/04/23 00:07:17;;;;;;;1.10;1.10;;;;;;;-0.61;95.11;98688.56;6382266;22;20046;-90
2024/04/23 00:09:43;;;;;;;1.10;1.10;;;;;;;-0.61;94.90;98692.88;6424925;22;20010;-91
2024/04/23 00:12:08;;;;;;;1.10;1.10;;;;;;;-0.59;94.34;98679.06;6340309;22;20586;-90
2024/04/23 00:14:34;;;;;;;1.10;1.10;;;;;;;-0.77;94.86;98680.38;6425278;22;19998;-90
2024/04/23 00:17:06;;;;;;;1.20;1.20;;;;;;;-0.70;95.44;98673.88;6426465;22;20002;-90
2024/04/23 00:19:32;;;;;;;1.10;1.10;;;;;;;-0.98;96.02;98673.59;6433522;22;20398;-90
2024/04/23 00:21:58;;;;;;;1.10;1.10;;;;;;;-1.10;96.58;98673.63;6391807;22;20030;-90
2024/04/23 00:24:24;;;;;;;1.10;1.10;;;;;;;-1.10;96.63;98678.88;6439172;22;19994;-90
2024/04/23 00:26:57;;;;;;;1.10;1.10;;;;;;;-1.15;97.45;98674.97;6398977;22;20094;-90
2024/04/23 00:29:23;;;;;;;1.10;1.10;;;;;;;-1.02;97.46;98666.31;6444163;22;19998;-90
2024/04/23 00:31:48;;;;;;;1.10;1.10;;;;;;;-1.20;97.17;98664.16;6397077;22;19998;-91
2024/04/23 00:34:14;;;;;;;1.10;1.10;;;;;;;-1.24;97.77;98659.53;6435634;22;20010;-90
2024/04/23 00:36:52;;;;;;;1.10;1.10;;;;;;;-1.02;96.91;98659.38;6392425;22;20004;-90
2024/04/23 00:39:17;;;;;;;1.10;1.10;;;;;;;-1.32;96.71;98660.66;6427314;22;20073;-89
2024/04/23 00:41:43;;;;;;;1.10;1.10;;;;;;;-1.31;97.42;98652.91;6380641;22;20007;-89
2024/04/23 00:44:08;;;;;;;1.10;1.10;;;;;;;-1.32;97.25;98660.66;6381329;22;20118;-90
2024/04/23 00:46:36;;;;;;;1.10;1.10;;;;;;;-1.27;97.40;98647.91;6381581;22;20002;-90
2024/04/23 00:49:02;;;;;;;1.10;1.10;;;;;;;-1.35;97.14;98649.94;6381022;22;20002;-90
2024/04/23 00:51:28;;;;;;;1.10;1.10;;;;;;;-1.17;96.97;98645.16;6378881;22;20381;-90
2024/04/23 00:53:54;;;;;;;1.13;1.13;;;;;;;-1.17;95.99;98647.78;6421785;22;19998;-90
2024/04/23 00:56:20;;;;;;;1.20;1.20;;;;;;;-0.85;93.10;98637.03;6419997;22;20058;-90
2024/04/23 00:58:47;;;;;;;1.15;1.15;;;;;;;-0.20;87.65;98629.34;6378199;22;20409;-90
2024/04/23 01:01:12;;;;;;;1.13;1.13;;;;;;;0.33;83.70;98624.22;6378403;22;20317;-90
2024/04/23 01:03:38;;;;;;;1.10;1.10;;;;;;;0.48;82.56;98623.53;6377130;22;20095;-90
2024/04/23 01:06:04;;;;;;;1.10;1.10;;;;;;;0.54;81.89;98616.88;6336698;22;20003;-90
2024/04/23 01:08:29;;;;;;;1.20;1.20;;;;;;;0.62;81.01;98619.16;6377802;22;20149;-89
2024/04/23 01:10:55;;;;;;;1.10;1.10;;;;;;;0.47;81.54;98619.06;6377339;22;20007;-91
2024/04/23 01:13:20;;;;;;;1.10;1.10;;;;;;;0.81;79.46;98620.38;6376415;22;20002;-91
2024/04/23 01:15:47;;;;;;;1.10;1.10;;;;;;;0.81;79.89;98617.75;6377131;22;20077;-89
2024/04/23 01:18:15;;;;;;;1.20;1.20;;;;;;;0.63;80.07;98617.50;6376412;22;20010;-89
2024/04/23 01:20:41;;;;;;;1.10;1.10;;;;;;;0.49;80.52;98624.44;6335752;22;20003;-89
2024/04/23 01:23:30;;;;;;;1.20;1.20;;;;;;;0.13;82.85;98615.91;6419825;22;20010;-89
2024/04/23 01:26:06;;;;;;;1.10;1.10;;;;;;;0.44;81.02;98618.00;6335466;22;20429;-89
2024/04/23 01:28:32;;;;;;;1.10;1.10;;;;;;;0.55;79.31;98619.59;6376974;22;20413;-89
2024/04/23 01:30:57;;;;;;;1.10;1.10;;;;;;;0.62;79.28;98621.81;6420518;22;20013;-89
2024/04/23 01:33:24;;;;;;;1.10;1.10;;;;;;;0.98;77.22;98617.13;6378502;22;19999;-90
2024/04/23 01:35:50;;;;;;;1.10;1.10;;;;;;;0.69;79.11;98621.41;6421677;22;19999;-89
2024/04/23 01:38:16;;;;;;;1.10;1.10;;;;;;;1.03;76.63;98620.97;6337240;22;20413;-89
2024/04/23 01:40:42;;;;;;;1.10;1.10;;;;;;;0.89;77.79;98624.44;6421673;22;20003;-90
2024/04/23 01:43:08;;;;;;;1.10;1.10;;;;;;;0.83;77.37;98622.31;6421361;22;20006;-90
2024/04/23 01:45:34;;;;;;;1.10;1.10;;;;;;;0.84;77.40;98623.22;6424012;22;20005;-90
2024/04/23 01:48:00;;;;;;;1.20;1.20;;;;;;;0.56;78.46;98623.13;6380425;22;20002;-90
2024/04/23 01:50:25;;;;;;;1.10;1.10;;;;;;;0.66;77.85;98615.94;6423737;22;19999;-90
2024/04/23 01:52:51;;;;;;;1.10;1.10;;;;;;;0.65;77.80;98606.25;6380298;22;20038;-90
2024/04/23 01:55:18;;;;;;;1.10;1.10;;;;;;;0.67;77.65;98606.34;6423878;22;20026;-90
2024/04/23 01:57:44;;;;;;;1.10;1.10;;;;;;;0.69;77.62;98610.00;6381352;22;20092;-90
2024/04/23 02:00:15;;;;;;;1.10;1.10;;;;;;;0.56;78.28;98612.63;6339687;22;20003;-90
2024/04/23 02:02:43;;;;;;;1.10;1.10;;;;;;;0.42;78.90;98612.63;6381206;22;19999;-89
2024/04/23 02:05:09;;;;;;;1.10;1.10;;;;;;;0.57;78.23;98615.34;6380930;22;20003;-89
2024/04/23 02:07:36;;;;;;;1.10;1.10;;;;;;;0.58;78.30;98617.19;6380805;22;20005;-90
2024/04/23 02:10:02;;;;;;;1.10;1.10;;;;;;;0.43;78.42;98611.84;6423750;22;20390;-90
2024/04/23 02:12:28;;;;;;;1.10;1.10;;;;;;;0.34;79.67;98613.84;6381353;22;20013;-90
2024/04/23 02:14:54;;;;;;;1.10;1.10;;;;;;;0.55;78.38;98616.97;6424520;22;20034;-89
2024/04/23 02:17:19;;;;;;;1.02;1.02;;;;;;;0.54;77.63;98609.91;6423727;22;20011;-89
2024/04/23 02:19:45;;;;;;;1.10;1.10;;;;;;;0.39;78.86;98617.69;6340526;22;20002;-89
2024/04/23 02:22:10;;;;;;;1.10;1.10;;;;;;;0.43;78.11;98608.28;6339370;22;20031;-89
2024/04/23 02:24:37;;;;;;;1.10;1.10;;;;;;;0.24;79.03;98612.31;6387275;22;19994;-89
2024/04/23 02:27:03;;;;;;;1.10;1.10;;;;;;;0.38;79.27;98625.44;6383930;22;20069;-89
2024/04/23 02:29:28;;;;;;;1.10;1.10;;;;;;;0.65;77.07;98614.13;6340069;22;20015;-88
2024/04/23 02:32:01;;;;;;;1.10;1.10;;;;;;;0.62;77.38;98607.78;6380246;22;20413;-89
2024/04/23 02:34:27;;;;;;;1.10;1.10;;;;;;;0.64;77.02;98606.16;6380419;22;19998;-89
2024/04/23 02:36:53;;;;;;;1.10;1.10;;;;;;;0.66;77.00;98602.81;6380847;22;20018;-89
2024/04/23 02:39:19;;;;;;;1.10;1.10;;;;;;;0.39;78.35;98608.91;6379744;22;19999;-89
2024/04/23 02:41:48;;;;;;;1.10;1.10;;;;;;;0.40;78.08;98608.09;6339919;22;20137;-89
2024/04/23 02:44:13;;;;;;;1.10;1.10;;;;;;;-0.07;80.22;98611.03;6423809;22;20046;-89
2024/04/23 02:46:39;;;;;;;1.10;1.10;;;;;;;-0.15;80.96;98615.75;6380734;22;20010;-89
2024/04/23 02:49:04;;;;;;;1.10;1.10;;;;;;;0.11;79.77;98609.66;6379828;22;20014;-89
2024/04/23 02:51:30;;;;;;;1.10;1.10;;;;;;;0.14;79.34;98604.59;6340866;22;20050;-89
2024/04/23 02:53:55;;;;;;;1.10;1.10;;;;;;;-0.14;81.50;98609.72;6423840;22;20073;-89
2024/04/23 02:56:20;;;;;;;1.10;1.10;;;;;;;-0.37;81.33;98615.09;6423547;22;20002;-89
2024/04/23 02:58:46;;;;;;;1.10;1.10;;;;;;;-0.59;82.72;98608.34;6340082;22;20002;-89
2024/04/23 03:01:11;;;;;;;1.10;1.10;;;;;;;-0.60;83.27;98601.28;6335387;22;19998;-89
2024/04/23 03:03:37;;;;;;;1.10;1.10;;;;;;;-0.26;82.23;98612.41;6380651;22;20756;-90
2024/04/23 03:06:02;;;;;;;1.10;1.10;;;;;;;-0.26;80.93;98604.53;6382123;22;20013;-89
2024/04/23 03:08:28;;;;;;;1.10;1.10;;;;;;;-0.15;81.62;98599.09;6338805;22;20782;-90
2024/04/23 03:10:53;;;;;;;1.10;1.10;;;;;;;-0.50;81.44;98605.47;6379605;22;20010;-90
2024/04/23 03:13:18;;;;;;;1.10;1.10;;;;;;;-0.47;82.09;98608.31;6380065;22;20002;-90
2024/04/23 03:15:44;;;;;;;1.10;1.10;;;;;;;-0.41;82.19;98606.09;6380346;22;20006;-90
2024/04/23 03:18:09;;;;;;;1.10;1.10;;;;;;;-0.64;83.01;98608.81;6423899;22;20046;-90
2024/04/23 03:20:35;;;;;;;1.10;1.10;;;;;;;-0.62;83.88;98607.25;6339597;22;20000;-89
2024/04/23 03:23:00;;;;;;;1.10;1.10;;;;;;;-1.07;85.86;98608.38;6339292;22;20014;-90
2024/04/23 03:25:25;;;;;;;1.10;1.10;;;;;;;-1.24;87.69;98611.50;6340078;22;20050;-90
2024/04/23 03:27:51;;;;;;;1.10;1.10;;;;;;;-1.43;88.57;98604.94;6339387;22;20705;-90
2024/04/23 03:30:16;;;;;;;1.10;1.10;;;;;;;-1.60;89.24;98610.63;6339033;22;20535;-89
2024/04/23 03:32:42;;;;;;;1.10;1.10;;;;;;;-1.55;89.61;98597.06;6381174;22;20010;-90
2024/04/23 03:35:07;;;;;;;1.10;1.10;;;;;;;-1.54;89.86;98600.59;6380473;22;19998;-90
2024/04/23 03:37:33;;;;;;;1.10;1.10;;;;;;;-1.56;90.05;98603.09;6423425;22;20014;-90
2024/04/23 03:39:58;;;;;;;1.10;1.10;;;;;;;-1.78;90.41;98607.53;6379600;22;19994;-90
2024/04/23 03:42:23;;;;;;;1.10;1.10;;;;;;;-1.97;90.54;98600.00;6423416;22;20002;-90
2024/04/23 03:44:49;;;;;;;1.10;1.10;;;;;;;-1.94;91.96;98602.88;6380269;22;19998;-91
2024/04/23 03:47:15;;;;;;;1.10;1.10;;;;;;;-2.40;91.69;98604.59;6379866;22;20400;-90
2024/04/23 03:49:41;;;;;;;1.10;1.10;;;;;;;-2.20;94.66;98598.31;6422991;22;20013;-90
2024/04/23 03:52:10;;;;;;;1.20;1.20;;;;;;;-2.19;95.28;98599.22;6380651;22;20006;-90
2024/04/23 03:54:36;;;;;;;1.10;1.10;;;;;;;-2.20;95.11;98594.78;6422787;22;19998;-90
2024/04/23 03:57:02;;;;;;;1.20;1.20;;;;;;;-1.97;94.19;98594.78;6380191;22;19998;-89
2024/04/23 03:59:27;;;;;;;1.10;1.10;;;;;;;-2.00;94.07;98591.97;6379748;22;20073;-88
2024/04/23 04:06:03;;;;;;;1.20;1.20;;;;;;;-1.75;92.86;98593.78;6380084;22;20003;-91
2024/04/23 04:07:22;;;;;;;1.20;1.20;;;;;;;-2.06;94.01;98596.69;6381308;22;20026;-89
2024/04/23 04:09:48;;;;;;;1.10;1.10;;;;;;;-2.14;94.43;98598.75;6341615;22;20026;-90
2024/04/23 04:12:13;;;;;;;1.10;1.10;;;;;;;-2.31;95.12;98604.38;6425715;22;20529;-89
2024/04/23 04:14:39;;;;;;;1.20;1.20;;;;;;;-2.09;94.00;98600.00;6426134;22;20002;-90
2024/04/23 04:17:04;;;;;;;1.20;1.20;;;;;;;-2.14;92.73;98606.59;6425816;22;19998;-90
2024/04/23 04:19:30;;;;;;;1.17;1.17;;;;;;;-2.23;93.20;98594.53;6381695;22;20376;-90
2024/04/23 04:21:57;;;;;;;1.20;1.20;;;;;;;-2.06;94.08;98594.09;6382013;22;20026;-90
2024/04/23 04:24:23;;;;;;;1.20;1.20;;;;;;;-2.17;94.74;98597.59;6426900;22;20384;-91
2024/04/23 04:26:48;;;;;;;1.20;1.20;;;;;;;-2.16;94.41;98602.03;6383875;22;20013;-90
2024/04/23 04:29:14;;;;;;;1.20;1.20;;;;;;;-2.41;94.95;98594.03;6382595;22;19998;-91
2024/04/23 04:31:39;;;;;;;1.20;1.20;;;;;;;-2.13;95.80;98597.06;6426102;22;20009;-91
2024/04/23 04:34:05;;;;;;;1.20;1.20;;;;;;;-2.18;95.54;98598.41;6382434;22;20747;-90
2024/04/23 04:36:30;;;;;;;1.10;1.10;;;;;;;-2.37;95.53;98601.31;6341659;22;20003;-89
2024/04/23 04:38:56;;;;;;;1.10;1.10;;;;;;;-2.33;96.16;98604.28;6425071;22;20012;-91
2024/04/23 04:41:22;;;;;;;1.20;1.20;;;;;;;-2.37;95.85;98599.63;6382549;22;20003;-91
2024/04/23 04:43:47;;;;;;;1.20;1.20;;;;;;;-2.07;95.51;98598.41;6382181;22;19999;-91
2024/04/23 04:46:13;;;;;;;1.20;1.20;;;;;;;-1.96;94.27;98591.41;6341297;22;20413;-89
2024/04/23 04:48:39;;;;;;;1.20;1.20;;;;;;;-1.46;91.94;98591.63;6426774;22;20077;-90
2024/04/23 04:51:04;;;;;;;1.20;1.20;;;;;;;-1.42;92.09;98598.00;6382807;22;20014;-90
2024/04/23 04:53:30;;;;;;;1.20;1.20;;;;;;;-1.11;89.07;98588.00;6383168;22;20010;-90
2024/04/23 04:55:55;;;;;;;1.10;1.10;;;;;;;-1.14;88.54;98593.97;6345568;22;20030;-90
2024/04/23 04:58:21;;;;;;;1.10;1.10;;;;;;;-0.87;87.22;98595.00;6382892;22;20066;-91
2024/04/23 05:00:49;;;;;;;1.10;1.10;;;;;;;-0.74;85.75;98596.78;6341578;22;20042;-91
2024/04/23 05:03:15;;;;;;;1.10;1.10;;;;;;;-0.62;85.50;98597.66;6430863;22;20030;-91
2024/04/23 05:05:40;;;;;;;1.10;1.10;;;;;;;-0.35;83.31;98595.13;6341681;22;20066;-90
2024/04/23 05:08:06;;;;;;;1.10;1.10;;;;;;;-0.41;83.92;98590.38;6425718;22;20002;-91
2024/04/23 05:10:31;;;;;;;1.10;1.10;;;;;;;-0.29;84.66;98590.28;6426455;22;20002;-91
2024/04/23 05:12:57;;;;;;;1.10;1.10;;;;;;;-0.22;83.02;98589.03;6382895;22;19998;-91
2024/04/23 05:15:22;;;;;;;1.10;1.10;;;;;;;0.04;82.78;98599.56;6425873;22;20289;-90
2024/04/23 05:17:48;;;;;;;1.10;1.10;;;;;;;0.23;80.76;98596.44;6382121;22;20306;-90
2024/04/23 05:20:13;;;;;;;1.10;1.10;;;;;;;0.60;79.22;98593.66;6425614;22;20022;-91
2024/04/23 05:22:39;;;;;;;1.00;1.00;;;;;;;0.59;78.60;98602.34;6426191;22;19998;-91
2024/04/23 05:25:05;;;;;;;1.10;1.10;;;;;;;1.02;76.18;98600.78;6382478;22;20014;-92
2024/04/23 05:27:30;;;;;;;1.10;1.10;;;;;;;0.89;76.63;98598.16;6426164;22;20453;-92
2024/04/23 05:29:56;;;;;;;1.10;1.10;;;;;;;1.01;74.91;98604.22;6382594;22;19999;-92
2024/04/23 05:35:09;;;;;;;1.10;1.10;;;;;;;1.21;73.50;98603.75;6424742;22;20074;-90
2024/04/23 05:37:34;;;;;;;1.10;1.10;;;;;;;1.19;74.59;98600.09;6381848;22;20007;-91
2024/04/23 05:40:00;;;;;;;1.10;1.10;;;;;;;1.15;74.15;98602.44;6381104;22;20010;-90
2024/04/23 05:42:25;;;;;;;1.10;1.10;;;;;;;1.35;73.36;98598.47;6383800;22;20301;-91
2024/04/23 05:44:51;;;;;;;1.10;1.10;;;;;;;1.47;73.40;98601.84;6347257;22;20002;-92
2024/04/23 05:47:16;;;;;;;1.10;1.10;;;;;;;1.54;72.03;98602.34;6386744;22;20282;-90
2024/04/23 05:50:19;;;;;;;1.02;1.02;;;;;;;1.91;72.79;98604.56;6390254;22;20262;-90
2024/04/23 05:53:41;;;;;;;1.00;1.00;;;;;;;1.71;71.99;98605.97;6392025;22;20248;-90
2024/04/23 05:56:26;;;;;;;1.02;1.02;;;;;;;1.89;70.81;98607.94;6394578;22;20084;-91
2024/04/23 05:58:51;;;;;;;1.00;1.00;;;;;;;2.03;68.76;98607.94;6388420;22;19998;-95
2024/04/23 06:01:19;;;;;;;1.00;1.00;;;;;;;2.38;69.27;98606.50;6388050;22;19998;-92
2024/04/23 06:03:44;;;;;;;1.00;1.00;;;;;;;2.68;67.37;98611.72;6385010;22;20068;-89
2024/04/23 06:06:10;;;;;;;1.10;1.10;;;;;;;2.69;68.09;98609.22;6383684;22;20006;-91
2024/04/23 06:08:35;;;;;;;1.10;1.10;;;;;;;2.72;68.34;98609.34;6342205;22;20014;-90
2024/04/23 06:11:01;;;;;;;1.00;1.00;;;;;;;2.85;65.91;98612.72;6381610;22;20476;-90
2024/04/23 06:13:26;;;;;;;1.00;1.00;;;;;;;3.39;65.10;98595.53;6426032;22;20758;-91
2024/04/23 06:15:52;;;;;;;1.00;1.00;;;;;;;3.51;64.17;98597.13;6427995;22;19999;-91
2024/04/23 06:18:22;;;;;;;1.00;1.00;;;;;;;3.33;62.81;98599.63;6427319;22;20028;-90
2024/04/23 06:20:51;;;;;;;1.00;1.00;;;;;;;4.20;61.92;98592.84;6383883;22;20010;-91
2024/04/23 06:23:19;;;;;;;0.98;0.98;;;;;;;4.22;61.18;98595.56;6384410;22;20428;-90
2024/04/23 06:25:45;;;;;;;1.00;1.00;;;;;;;3.97;60.78;98591.63;6427284;22;20002;-90
2024/04/23 06:28:10;;;;;;;1.00;1.00;;;;;;;4.09;62.13;98588.75;6384483;22;19998;-91
2024/04/23 06:30:36;;;;;;;1.00;1.00;;;;;;;4.68;60.43;98588.22;6381394;22;20034;-91
2024/04/23 06:33:01;;;;;;;0.90;0.90;;;;;;;4.83;58.36;98598.63;6426042;22;20037;-91
2024/04/23 06:35:27;;;;;;;0.90;0.90;;;;;;;5.07;57.71;98604.22;6384717;22;20006;-89
2024/04/23 06:37:52;;;;;;;0.90;0.90;;;;;;;4.59;57.86;98590.41;6426431;22;20002;-90
2024/04/23 06:40:18;;;;;;;0.95;0.95;;;;;;;4.73;57.50;98597.28;6383182;22;19995;-91
2024/04/23 06:42:44;;;;;;;1.00;1.00;;;;;;;5.03;58.15;98595.25;6384050;22;20517;-91
2024/04/23 06:45:10;;;;;;;0.90;0.90;;;;;;;5.27;56.82;98592.88;6383105;22;20006;-92
2024/04/23 06:47:35;;;;;;;0.98;0.98;;;;;;;4.95;56.37;98593.97;6383205;22;20426;-91
2024/04/23 06:50:01;;;;;;;1.00;1.00;;;;;;;4.87;56.69;98588.28;6427116;22;20015;-91
2024/04/23 06:52:27;;;;;;;1.00;1.00;;;;;;;5.31;55.28;98586.88;6383603;22;20013;-91
2024/04/23 06:54:52;;;;;;;0.90;0.90;;;;;;;5.83;54.82;98584.00;6426718;22;19999;-90
2024/04/23 06:57:18;;;;;;;0.90;0.90;;;;;;;5.55;55.55;98583.56;6427124;22;20005;-91
2024/04/23 06:59:44;;;;;;;0.90;0.90;;;;;;;5.85;54.40;98574.41;6340743;22;20320;-92
2024/04/23 07:02:11;;;;;;;0.80;0.80;;;;;;;5.73;53.96;98579.13;6341979;22;20059;-91
2024/04/23 07:04:36;;;;;;;0.90;0.90;;;;;;;6.09;53.76;98574.63;6343497;22;20009;-91
2024/04/23 07:07:02;;;;;;;0.90;0.90;;;;;;;6.22;52.85;98568.09;6384961;22;19998;-90
2024/04/23 07:09:27;;;;;;;0.80;0.80;;;;;;;6.06;52.34;98576.22;6386676;22;20013;-90
2024/04/23 07:11:53;;;;;;;0.90;0.90;;;;;;;6.66;51.79;98571.75;6383715;22;20003;-89
2024/04/23 07:14:18;;;;;;;0.80;0.80;;;;;;;7.05;50.72;98559.22;6370236;22;20010;-90
2024/04/23 07:16:46;;;;;;;0.82;0.82;;;;;;;6.81;51.34;98571.47;6343329;22;20003;-90
2024/04/23 07:19:12;;;;;;;0.80;0.80;;;;;;;7.30;49.95;98561.09;6381821;22;20325;-90
2024/04/23 07:21:38;;;;;;;0.90;0.90;;;;;;;7.73;50.32;98557.41;6380928;22;20433;-91
2024/04/23 07:24:03;;;;;;;0.70;0.70;;;;;;;7.91;48.02;98552.78;6340765;22;20318;-90
2024/04/23 07:26:29;;;;;;;0.80;0.80;;;;;;;8.38;47.38;98556.25;6381539;22;20077;-89
2024/04/23 07:28:54;;;;;;;0.90;0.90;;;;;;;8.17;48.58;98551.06;6383973;22;19999;-90
2024/04/23 07:31:20;;;;;;;0.70;0.70;;;;;;;8.37;46.68;98554.44;6381718;22;19998;-91
2024/04/23 07:33:45;;;;;;;0.80;0.80;;;;;;;7.66;49.55;98556.25;6382925;22;20006;-90
2024/04/23 07:36:11;;;;;;;0.80;0.80;;;;;;;8.16;47.54;98551.91;6381010;22;20010;-91
2024/04/23 07:38:38;;;;;;;0.80;0.80;;;;;;;8.11;49.20;98552.59;6382916;22;20007;-91
2024/04/23 07:41:04;;;;;;;0.70;0.70;;;;;;;8.19;47.87;98545.78;6382026;22;19998;-91
2024/04/23 07:43:29;;;;;;;0.70;0.70;;;;;;;9.14;46.75;98547.25;6427177;22;20002;-91
2024/04/23 07:45:54;;;;;;;0.77;0.77;;;;;;;9.77;44.45;98542.09;6428665;22;19998;-90
2024/04/23 07:48:20;;;;;;;0.60;0.60;;;;;;;9.83;42.86;98541.38;6344798;22;20002;-92
2024/04/23 07:50:45;;;;;;;0.70;0.70;;;;;;;10.32;42.84;98540.09;6385829;22;20013;-92
2024/04/23 07:53:11;;;;;;;0.70;0.70;;;;;;;8.62;47.48;98534.00;6385931;22;20010;-93
2024/04/23 07:55:36;;;;;;;0.70;0.70;;;;;;;8.44;46.71;98545.84;6344461;22;19994;-93
2024/04/23 07:58:02;;;;;;;0.70;0.70;;;;;;;8.98;46.87;98535.22;6391898;22;20302;-91
2024/04/23 08:00:30;;;;;;;0.70;0.70;;;;;;;9.64;45.21;98537.25;6385756;22;20003;-91
2024/04/23 08:02:57;;;;;;;0.77;0.77;;;;;;;8.43;49.07;98548.44;6344636;22;20396;-92
2024/04/23 08:05:23;;;;;;;0.80;0.80;;;;;;;9.16;45.82;98539.34;6388149;22;20013;-91
2024/04/23 08:07:49;;;;;;;0.80;0.80;;;;;;;9.31;47.31;98538.91;6387287;22;20002;-93
2024/04/23 08:10:18;;;;;;;0.75;0.75;;;;;;;9.35;46.38;98535.50;6347669;22;20080;-91
2024/04/23 08:12:45;;;;;;;0.70;0.70;;;;;;;9.19;46.00;98535.00;6388369;22;20026;-92
2024/04/23 08:15:11;;;;;;;0.80;0.80;;;;;;;9.24;45.71;98535.13;6392197;22;20010;-94
2024/04/23 08:17:37;;;;;;;0.70;0.70;;;;;;;8.88;46.25;98540.22;6394162;22;20007;-93
2024/04/23 08:20:03;;;;;;;0.80;0.80;;;;;;;9.33;46.15;98532.75;6354696;22;20013;-93
2024/04/23 08:22:29;;;;;;;0.70;0.70;;;;;;;9.75;44.16;98524.25;6403786;22;19998;-91
2024/04/23 08:24:54;;;;;;;0.80;0.80;;;;;;;9.34;44.30;98521.28;6446948;22;19987;-91
2024/04/23 08:27:20;;;;;;;0.70;0.70;;;;;;;9.57;44.02;98521.03;6396587;22;20006;-91
2024/04/23 08:29:45;;;;;;;0.70;0.70;;;;;;;9.65;45.18;98520.41;6348709;22;19999;-93
2024/04/23 08:32:11;;;;;;;0.70;0.70;;;;;;;10.07;42.81;98510.94;6343053;22;19994;-91
2024/04/23 08:34:36;;;;;;;0.70;0.70;;;;;;;9.07;43.52;98528.41;6428496;22;19999;-91
2024/04/23 08:37:06;;;;;;;0.70;0.70;;;;;;;9.67;44.53;98516.03;6381837;22;20017;-91
2024/04/23 08:39:32;;;;;;;0.70;0.70;;;;;;;9.10;45.85;98513.44;6425516;22;20308;-92
2024/04/23 08:42:00;;;;;;;0.70;0.70;;;;;;;9.41;44.21;98509.94;6424246;22;20690;-91
2024/04/23 08:44:29;;;;;;;0.70;0.70;;;;;;;10.02;44.40;98509.06;6342835;22;20026;-92
2024/04/23 08:46:54;;;;;;;0.70;0.70;;;;;;;9.98;42.25;98503.59;6386773;22;20006;-91
2024/04/23 08:49:21;;;;;;;0.70;0.70;;;;;;;10.67;39.52;98494.75;6382214;22;20122;-91
2024/04/23 08:51:46;;;;;;;0.60;0.60;;;;;;;11.05;41.24;98496.59;6379343;22;20006;-91
2024/04/23 08:54:12;;;;;;;0.60;0.60;;;;;;;9.82;40.89;98504.94;6426176;22;19999;-91
2024/04/23 08:56:45;;;;;;;0.70;0.70;;;;;;;10.11;42.32;98500.41;6383099;22;20006;-92
2024/04/23 08:59:13;;;;;;;0.60;0.60;;;;;;;10.30;43.28;98495.59;6385306;22;20481;-92
2024/04/23 09:01:39;;;;;;;0.60;0.60;;;;;;;10.64;40.60;98502.72;6343990;22;19999;-92
2024/04/23 09:04:06;;;;;;;0.70;0.70;;;;;;;9.86;42.56;98506.81;6385782;22;20009;-92
2024/04/23 09:06:38;;;;;;;0.70;0.70;;;;;;;9.78;39.50;98500.38;6385702;22;20002;-90
2024/04/23 09:09:05;;;;;;;0.70;0.70;;;;;;;10.94;40.38;98486.53;6390333;22;20005;-90
2024/04/23 09:11:33;;;;;;;0.70;0.70;;;;;;;9.24;41.02;98497.88;6349085;22;19999;-91
2024/04/23 09:13:59;;;;;;;0.70;0.70;;;;;;;8.62;44.21;98499.44;6388260;22;20013;-91
2024/04/23 09:16:29;;;;;;;0.80;0.80;;;;;;;10.19;42.54;98482.84;6430981;22;20050;-92
2024/04/23 09:18:55;;;;;;;0.70;0.70;;;;;;;11.00;40.82;98482.22;6346810;22;19998;-91
2024/04/23 09:21:21;;;;;;;0.68;0.68;;;;;;;11.43;39.60;98482.31;6387680;22;20026;-90
2024/04/23 09:23:47;;;;;;;0.60;0.60;;;;;;;11.26;39.77;98469.50;6345282;22;19999;-88
2024/04/23 09:26:14;;;;;;;0.70;0.70;;;;;;;11.17;39.78;98474.63;6387868;22;20002;-88
2024/04/23 09:28:45;;;;;;;0.63;0.63;;;;;;;12.55;38.42;98469.34;6344826;22;20014;-90
2024/04/23 09:31:15;;;;;;;0.70;0.70;;;;;;;10.20;39.89;98473.06;6386509;22;20295;-89
2024/04/23 09:33:54;;;;;;;0.73;0.73;;;;;;;9.50;40.88;98480.94;6385912;22;20073;-91
2024/04/23 09:36:25;;;;;;;0.70;0.70;;;;;;;11.78;38.99;98470.56;6428681;22;20003;-90
2024/04/23 09:39:02;;;;;;;0.60;0.60;;;;;;;12.68;37.15;98465.09;6343784;22;20492;-90
2024/04/23 09:41:28;;;;;;;0.40;0.40;;;;;;;12.32;39.00;98471.66;6428543;22;20030;-90
2024/04/23 09:43:59;;;;;;;0.70;0.70;;;;;;;12.29;38.79;98480.50;6431093;22;20003;-89
2024/04/23 09:46:30;;;;;;;0.70;0.70;;;;;;;11.92;37.10;98467.31;6397843;22;20013;-92
2024/04/23 09:48:56;;;;;;;0.70;0.70;;;;;;;12.88;36.38;98466.31;6349209;22;20426;-90
2024/04/23 09:51:22;;;;;;;0.70;0.70;;;;;;;12.23;37.52;98460.78;6386216;22;20014;-91
2024/04/23 09:53:48;;;;;;;0.70;0.70;;;;;;;12.92;34.43;98459.25;6386291;22;20011;-91
2024/04/23 09:56:20;;;;;;;0.70;0.70;;;;;;;12.05;37.92;98451.53;6386460;22;20077;-90
2024/04/23 09:58:47;;;;;;;0.70;0.70;;;;;;;11.45;37.54;98449.44;6386101;22;20306;-90
2024/04/23 10:01:18;;;;;;;0.80;0.80;;;;;;;12.91;36.98;98439.59;6386976;22;20492;-90
2024/04/23 10:03:45;;;;;;;0.73;0.73;;;;;;;12.93;34.74;98435.16;6387358;22;20021;-90
2024/04/23 10:06:15;;;;;;;0.70;0.70;;;;;;;13.07;34.74;98420.19;6385769;22;20014;-89
2024/04/23 10:08:47;;;;;;;0.68;0.68;;;;;;;13.72;34.05;98416.63;6430954;22;20018;-90
2024/04/23 10:11:17;;;;;;;0.60;0.60;;;;;;;13.48;34.92;98413.63;6386071;22;20000;-90
2024/04/23 10:13:51;;;;;;;0.68;0.68;;;;;;;14.22;35.15;98412.66;6428232;22;20002;-91
2024/04/23 10:16:30;;;;;;;0.60;0.60;;;;;;;12.69;34.92;98416.03;6386401;22;20435;-91
2024/04/23 10:19:01;;;;;;;0.40;0.40;;;;;;;10.83;37.70;98418.63;6386315;22;20006;-91
2024/04/23 10:21:34;;;;;;;0.70;0.70;;;;;;;11.32;40.76;98430.44;6385016;22;20670;-91
2024/04/23 10:24:07;;;;;;;0.60;0.60;;;;;;;11.80;37.19;98420.72;6345562;22;20031;-91
2024/04/23 10:26:44;;;;;;;0.80;0.80;;;;;;;13.68;33.50;98404.06;6432524;22;19995;-88
2024/04/23 10:29:10;;;;;;;;;;;;;;;15.11;31.51;98399.06;6435002;22;19998;-91
2024/04/23 10:31:36;;;;;;;0.70;0.70;;;;;;;15.14;32.38;98393.72;6387247;22;19929;-92
2024/04/23 10:34:03;;;;;;;0.60;0.60;;;;;;;15.17;32.25;98397.28;6346164;22;19998;-90
2024/04/23 10:36:30;;;;;;;0.70;0.70;;;;;;;14.08;31.68;98399.09;6385944;22;20081;-90
2024/04/23 10:38:59;;;;;;;0.60;0.60;;;;;;;14.57;33.24;98400.50;6345061;22;20010;-89
2024/04/23 10:41:29;;;;;;;0.50;0.50;;;;;;;14.29;32.90;98399.31;6344811;22;20002;-91
2024/04/23 10:43:56;;;;;;;0.40;0.40;;;;;;;14.29;33.94;98403.78;6430202;22;20009;-90
2024/04/23 10:46:22;;;;;;;0.40;0.40;;;;;;;12.18;37.19;98411.66;6344943;22;20009;-92
2024/04/23 10:48:55;;;;;;;0.50;0.50;;;;;;;13.78;34.30;98405.94;6343754;22;20003;-91
2024/04/23 10:51:25;;;;;;;0.40;0.40;;;;;;;12.42;37.08;98401.38;6424615;22;19998;-88
2024/04/23 10:53:54;;;;;;;0.50;0.50;;;;;;;12.05;37.73;98398.06;6425685;22;19998;-90
2024/04/23 10:56:24;;;;;;;0.50;0.50;;;;;;;11.87;36.42;98394.13;6381635;22;20010;-91
2024/04/23 10:59:03;;;;;;;0.50;0.50;;;;;;;11.74;36.78;98401.00;6425335;22;20018;-92
2024/04/23 11:01:29;;;;;;;0.50;0.50;;;;;;;11.43;37.11;98397.72;6341009;22;20010;-93
2024/04/23 11:04:02;;;;;;;0.55;0.55;;;;;;;11.62;37.17;98390.97;6381531;22;19998;-91
2024/04/23 11:06:38;;;;;;;0.50;0.50;;;;;;;11.40;38.08;98392.34;6341805;22;19998;-92
2024/04/23 11:09:19;;;;;;;0.60;0.60;;;;;;;11.00;39.80;98388.81;6339840;22;19995;-91
2024/04/23 11:11:53;;;;;;;0.80;0.80;;;;;;;11.24;38.75;98391.09;6377987;22;20006;-91
2024/04/23 11:14:30;;;;;;;0.80;0.80;;;;;;;15.48;31.19;98361.63;6377490;22;20002;-90
2024/04/23 11:17:04;;;;;;;0.55;0.55;;;;;;;13.97;32.57;98363.25;6419926;22;20413;-90
2024/04/23 11:19:43;;;;;;;0.75;0.75;;;;;;;15.53;31.09;98359.84;6376497;22;19995;-90
2024/04/23 11:22:10;;;;;;;0.70;0.70;;;;;;;14.16;31.09;98361.63;6335736;22;20010;-91
2024/04/23 11:24:45;;;;;;;;;;;;;;;15.39;31.51;98361.56;6377831;22;19998;-89
2024/04/23 11:27:12;;;;;;;0.60;0.60;;;;;;;17.74;28.90;98343.53;6377236;22;20369;-91
2024/04/23 11:29:42;;;;;;;0.40;0.40;;;;;;;15.32;29.23;98355.25;6339006;22;20393;-90
2024/04/23 11:32:08;;;;;;;0.40;0.40;;;;;;;13.58;32.22;98359.25;6341436;22;20041;-91
2024/04/23 11:34:35;;;;;;;0.60;0.60;;;;;;;14.68;34.33;98360.28;6426949;22;20010;-92
2024/04/23 11:37:01;;;;;;;0.50;0.50;;;;;;;15.82;30.83;98346.50;6428233;22;19998;-91
2024/04/23 11:39:27;;;;;;;0.60;0.60;;;;;;;18.07;28.48;98334.34;6303667;22;20047;-90
2024/04/23 11:41:56;;;;;;;0.60;0.60;;;;;;;18.07;26.24;98335.22;6387899;22;19994;-90